sensor_id;sensor_type;location;lat;lon;timestamp;P1;durP1;ratioP1;P2;durP2;ratioP2
6438;SDS011;3252;52.540;13.290;2023-03-11T00:00:15;19.37;;;15.57;;
6438;SDS011;3252;52.540;13.290;2023-03-11T00:02:21;17.13;;;13.90;;
6438;SDS011;3252;52.540;13.290;2023-03-11T00:04:24;17.87;;;14.17;;
6438;SDS011;3252;52.540;13.290;2023-03-11T00:06:26;16.90;;;13.33;;
6438;SDS011;3252;52.540;13.290;2023-03-11T00:08:29;15.83;;;12.97;;
6438;SDS011;3252;52.540;13.290;2023-03-11T00:10:32;16.60;;;13.60;;
6438;SDS011;3252;52.540;13.290;2023-03-11T00:12:36;17.60;;;13.03;;
6438;SDS011;3252;52.540;13.290;2023-03-11T00:14:40;14.33;;;12.70;;
6438;SDS011;3252;52.540;13.290;2023-03-11T00:16:43;15.97;;;12.43;;
6438;SDS011;3252;52.540;13.290;2023-03-11T00:18:45;15.07;;;11.57;;
6438;SDS011;3252;52.540;13.290;2023-03-11T00:20:51;15.23;;;12.87;;
6438;SDS011;3252;52.540;13.290;2023-03-11T00:22:55;14.00;;;11.97;;
6438;SDS011;3252;52.540;13.290;2023-03-11T00:24:57;13.43;;;11.87;;
6438;SDS011;3252;52.540;13.290;2023-03-11T00:27:00;13.77;;;12.13;;
6438;SDS011;3252;52.540;13.290;2023-03-11T00:29:03;14.33;;;12.50;;
6438;SDS011;3252;52.540;13.290;2023-03-11T00:31:07;14.57;;;12.77;;
6438;SDS011;3252;52.540;13.290;2023-03-11T00:33:10;14.03;;;11.77;;
6438;SDS011;3252;52.540;13.290;2023-03-11T00:35:14;14.47;;;12.70;;
6438;SDS011;3252;52.540;13.290;2023-03-11T00:37:19;13.93;;;12.43;;
6438;SDS011;3252;52.540;13.290;2023-03-11T00:39:21;16.23;;;13.47;;
6438;SDS011;3252;52.540;13.290;2023-03-11T00:41:24;17.63;;;13.90;;
6438;SDS011;3252;52.540;13.290;2023-03-11T00:43:27;13.10;;;11.80;;
6438;SDS011;3252;52.540;13.290;2023-03-11T00:45:31;15.27;;;13.63;;
6438;SDS011;3252;52.540;13.290;2023-03-11T00:47:34;14.63;;;13.13;;
6438;SDS011;3252;52.540;13.290;2023-03-11T00:49:37;14.17;;;12.67;;
6438;SDS011;3252;52.540;13.290;2023-03-11T00:51:40;14.23;;;12.83;;
6438;SDS011;3252;52.540;13.290;2023-03-11T00:53:42;13.87;;;12.40;;
6438;SDS011;3252;52.540;13.290;2023-03-11T00:55:44;16.00;;;14.03;;
6438;SDS011;3252;52.540;13.290;2023-03-11T00:57:48;15.97;;;14.27;;
6438;SDS011;3252;52.540;13.290;2023-03-11T00:59:54;17.27;;;15.47;;
6438;SDS011;3252;52.540;13.290;2023-03-11T01:01:58;16.73;;;14.43;;
6438;SDS011;3252;52.540;13.290;2023-03-11T01:04:02;17.83;;;15.93;;
6438;SDS011;3252;52.540;13.290;2023-03-11T01:06:05;16.53;;;14.83;;
6438;SDS011;3252;52.540;13.290;2023-03-11T01:08:08;16.13;;;14.43;;
6438;SDS011;3252;52.540;13.290;2023-03-11T01:10:11;16.87;;;14.73;;
6438;SDS011;3252;52.540;13.290;2023-03-11T01:12:14;14.67;;;13.17;;
6438;SDS011;3252;52.540;13.290;2023-03-11T01:14:18;15.73;;;14.13;;
6438;SDS011;3252;52.540;13.290;2023-03-11T01:16:20;15.77;;;14.17;;
6438;SDS011;3252;52.540;13.290;2023-03-11T01:18:23;16.60;;;14.90;;
6438;SDS011;3252;52.540;13.290;2023-03-11T01:20:30;14.83;;;13.30;;
6438;SDS011;3252;52.540;13.290;2023-03-11T01:22:33;13.93;;;12.50;;
6438;SDS011;3252;52.540;13.290;2023-03-11T01:24:35;13.67;;;12.27;;
6438;SDS011;3252;52.540;13.290;2023-03-11T01:26:38;12.83;;;11.47;;
6438;SDS011;3252;52.540;13.290;2023-03-11T01:28:40;11.37;;;10.27;;
6438;SDS011;3252;52.540;13.290;2023-03-11T01:30:43;11.17;;;10.07;;
6438;SDS011;3252;52.540;13.290;2023-03-11T01:32:45;10.47;;;9.47;;
6438;SDS011;3252;52.540;13.290;2023-03-11T01:34:47;10.50;;;9.50;;
6438;SDS011;3252;52.540;13.290;2023-03-11T01:36:51;9.87;;;8.97;;
6438;SDS011;3252;52.540;13.290;2023-03-11T01:38:54;8.00;;;7.20;;
6438;SDS011;3252;52.540;13.290;2023-03-11T01:40:56;8.50;;;7.70;;
6438;SDS011;3252;52.540;13.290;2023-03-11T01:42:58;7.80;;;7.10;;
6438;SDS011;3252;52.540;13.290;2023-03-11T01:45:05;6.37;;;5.77;;
6438;SDS011;3252;52.540;13.290;2023-03-11T01:47:33;6.47;;;5.63;;
6438;SDS011;3252;52.540;13.290;2023-03-11T01:49:41;5.20;;;4.70;;
6438;SDS011;3252;52.540;13.290;2023-03-11T01:51:45;5.07;;;4.57;;
6438;SDS011;3252;52.540;13.290;2023-03-11T01:53:52;4.57;;;4.17;;
6438;SDS011;3252;52.540;13.290;2023-03-11T01:55:57;3.40;;;3.10;;
6438;SDS011;3252;52.540;13.290;2023-03-11T01:57:59;3.07;;;2.77;;
6438;SDS011;3252;52.540;13.290;2023-03-11T02:00:07;2.47;;;2.27;;
6438;SDS011;3252;52.540;13.290;2023-03-11T02:02:16;2.70;;;2.00;;
6438;SDS011;3252;52.540;13.290;2023-03-11T02:04:27;1.90;;;1.80;;
6438;SDS011;3252;52.540;13.290;2023-03-11T02:06:30;1.67;;;1.57;;
6438;SDS011;3252;52.540;13.290;2023-03-11T02:08:33;1.40;;;1.30;;
6438;SDS011;3252;52.540;13.290;2023-03-11T02:10:38;1.93;;;1.63;;
6438;SDS011;3252;52.540;13.290;2023-03-11T02:12:42;1.70;;;1.60;;
6438;SDS011;3252;52.540;13.290;2023-03-11T02:14:55;1.47;;;1.37;;
6438;SDS011;3252;52.540;13.290;2023-03-11T02:16:57;1.63;;;1.53;;
6438;SDS011;3252;52.540;13.290;2023-03-11T02:19:03;1.73;;;1.40;;
6438;SDS011;3252;52.540;13.290;2023-03-11T02:21:18;1.40;;;1.30;;
6438;SDS011;3252;52.540;13.290;2023-03-11T02:23:26;1.13;;;1.03;;
6438;SDS011;3252;52.540;13.290;2023-03-11T02:25:34;2.20;;;1.40;;
6438;SDS011;3252;52.540;13.290;2023-03-11T02:27:45;1.53;;;1.30;;
6438;SDS011;3252;52.540;13.290;2023-03-11T02:29:51;1.57;;;1.30;;
6438;SDS011;3252;52.540;13.290;2023-03-11T02:31:59;1.53;;;1.33;;
6438;SDS011;3252;52.540;13.290;2023-03-11T02:34:04;1.63;;;1.30;;
6438;SDS011;3252;52.540;13.290;2023-03-11T02:36:34;1.73;;;1.40;;
6438;SDS011;3252;52.540;13.290;2023-03-11T02:38:40;1.80;;;1.40;;
6438;SDS011;3252;52.540;13.290;2023-03-11T02:40:47;1.73;;;1.63;;
6438;SDS011;3252;52.540;13.290;2023-03-11T02:42:56;1.63;;;1.47;;
6438;SDS011;3252;52.540;13.290;2023-03-11T02:45:02;1.87;;;1.77;;
6438;SDS011;3252;52.540;13.290;2023-03-11T02:47:06;1.60;;;1.50;;
6438;SDS011;3252;52.540;13.290;2023-03-11T02:49:10;1.93;;;1.73;;
6438;SDS011;3252;52.540;13.290;2023-03-11T02:51:12;2.17;;;1.63;;
6438;SDS011;3252;52.540;13.290;2023-03-11T02:53:15;2.13;;;1.93;;
6438;SDS011;3252;52.540;13.290;2023-03-11T02:55:18;2.10;;;1.90;;
6438;SDS011;3252;52.540;13.290;2023-03-11T02:57:21;2.33;;;2.13;;
6438;SDS011;3252;52.540;13.290;2023-03-11T02:59:25;2.60;;;2.40;;
6438;SDS011;3252;52.540;13.290;2023-03-11T03:01:32;2.07;;;1.90;;
6438;SDS011;3252;52.540;13.290;2023-03-11T03:03:34;2.43;;;2.23;;
6438;SDS011;3252;52.540;13.290;2023-03-11T03:05:37;2.43;;;2.23;;
6438;SDS011;3252;52.540;13.290;2023-03-11T03:07:39;2.37;;;2.17;;
6438;SDS011;3252;52.540;13.290;2023-03-11T03:09:43;2.80;;;2.57;;
6438;SDS011;3252;52.540;13.290;2023-03-11T03:11:45;2.57;;;2.27;;
6438;SDS011;3252;52.540;13.290;2023-03-11T03:13:48;2.70;;;2.50;;
6438;SDS011;3252;52.540;13.290;2023-03-11T03:15:51;2.60;;;2.40;;
6438;SDS011;3252;52.540;13.290;2023-03-11T03:17:54;3.43;;;2.87;;
6438;SDS011;3252;52.540;13.290;2023-03-11T03:19:56;3.17;;;2.87;;
6438;SDS011;3252;52.540;13.290;2023-03-11T03:21:58;2.73;;;2.53;;
6438;SDS011;3252;52.540;13.290;2023-03-11T03:24:01;2.70;;;2.50;;
6438;SDS011;3252;52.540;13.290;2023-03-11T03:26:03;2.97;;;2.67;;
6438;SDS011;3252;52.540;13.290;2023-03-11T03:28:10;3.13;;;2.83;;
6438;SDS011;3252;52.540;13.290;2023-03-11T03:30:17;2.90;;;2.70;;
6438;SDS011;3252;52.540;13.290;2023-03-11T03:32:22;2.80;;;2.60;;
6438;SDS011;3252;52.540;13.290;2023-03-11T03:34:27;2.53;;;2.33;;
6438;SDS011;3252;52.540;13.290;2023-03-11T03:36:29;3.00;;;2.70;;
6438;SDS011;3252;52.540;13.290;2023-03-11T03:41:54;3.63;;;2.77;;
6438;SDS011;3252;52.540;13.290;2023-03-11T03:43:58;3.00;;;2.70;;
6438;SDS011;3252;52.540;13.290;2023-03-11T03:46:03;3.37;;;2.87;;
6438;SDS011;3252;52.540;13.290;2023-03-11T03:48:14;2.87;;;2.40;;
6438;SDS011;3252;52.540;13.290;2023-03-11T03:50:19;3.27;;;2.90;;
6438;SDS011;3252;52.540;13.290;2023-03-11T03:52:23;2.93;;;2.63;;
6438;SDS011;3252;52.540;13.290;2023-03-11T03:54:25;3.40;;;2.80;;
6438;SDS011;3252;52.540;13.290;2023-03-11T03:56:27;3.37;;;2.90;;
6438;SDS011;3252;52.540;13.290;2023-03-11T03:58:29;5.37;;;3.20;;
6438;SDS011;3252;52.540;13.290;2023-03-11T04:00:33;3.60;;;3.23;;
6438;SDS011;3252;52.540;13.290;2023-03-11T04:02:36;4.60;;;2.73;;
6438;SDS011;3252;52.540;13.290;2023-03-11T04:04:40;3.73;;;2.83;;
6438;SDS011;3252;52.540;13.290;2023-03-11T04:06:43;4.10;;;3.30;;
6438;SDS011;3252;52.540;13.290;2023-03-11T04:08:46;4.60;;;3.50;;
6438;SDS011;3252;52.540;13.290;2023-03-11T04:10:55;3.80;;;3.40;;
6438;SDS011;3252;52.540;13.290;2023-03-11T04:12:57;3.97;;;3.50;;
6438;SDS011;3252;52.540;13.290;2023-03-11T04:14:59;3.60;;;3.30;;
6438;SDS011;3252;52.540;13.290;2023-03-11T04:17:02;3.87;;;3.30;;
6438;SDS011;3252;52.540;13.290;2023-03-11T04:19:04;4.03;;;3.30;;
6438;SDS011;3252;52.540;13.290;2023-03-11T04:21:09;3.50;;;3.20;;
6438;SDS011;3252;52.540;13.290;2023-03-11T04:23:11;3.40;;;3.10;;
6438;SDS011;3252;52.540;13.290;2023-03-11T04:25:14;3.63;;;3.33;;
6438;SDS011;3252;52.540;13.290;2023-03-11T04:27:16;3.17;;;2.87;;
6438;SDS011;3252;52.540;13.290;2023-03-11T04:29:19;3.50;;;3.20;;
6438;SDS011;3252;52.540;13.290;2023-03-11T04:31:24;4.10;;;3.30;;
6438;SDS011;3252;52.540;13.290;2023-03-11T04:33:27;4.10;;;3.60;;
6438;SDS011;3252;52.540;13.290;2023-03-11T04:35:29;3.07;;;2.77;;
6438;SDS011;3252;52.540;13.290;2023-03-11T04:37:33;3.20;;;2.90;;
6438;SDS011;3252;52.540;13.290;2023-03-11T04:39:37;3.20;;;2.70;;
6438;SDS011;3252;52.540;13.290;2023-03-11T04:41:40;3.07;;;2.77;;
6438;SDS011;3252;52.540;13.290;2023-03-11T04:43:44;2.80;;;2.60;;
6438;SDS011;3252;52.540;13.290;2023-03-11T04:45:48;2.93;;;2.63;;
6438;SDS011;3252;52.540;13.290;2023-03-11T04:47:51;2.50;;;2.30;;
6438;SDS011;3252;52.540;13.290;2023-03-11T04:49:55;2.80;;;2.40;;
6438;SDS011;3252;52.540;13.290;2023-03-11T04:51:59;2.60;;;2.40;;
6438;SDS011;3252;52.540;13.290;2023-03-11T04:54:03;2.20;;;2.00;;
6438;SDS011;3252;52.540;13.290;2023-03-11T04:56:05;2.50;;;2.30;;
6438;SDS011;3252;52.540;13.290;2023-03-11T04:58:10;2.33;;;2.13;;
6438;SDS011;3252;52.540;13.290;2023-03-11T05:00:13;2.70;;;2.50;;
6438;SDS011;3252;52.540;13.290;2023-03-11T05:02:21;2.30;;;2.10;;
6438;SDS011;3252;52.540;13.290;2023-03-11T05:04:31;2.23;;;2.00;;
6438;SDS011;3252;52.540;13.290;2023-03-11T05:06:34;2.37;;;2.00;;
6438;SDS011;3252;52.540;13.290;2023-03-11T05:08:37;1.80;;;1.70;;
6438;SDS011;3252;52.540;13.290;2023-03-11T05:10:41;2.10;;;1.90;;
6438;SDS011;3252;52.540;13.290;2023-03-11T05:12:44;2.33;;;1.90;;
6438;SDS011;3252;52.540;13.290;2023-03-11T05:14:46;1.93;;;1.77;;
6438;SDS011;3252;52.540;13.290;2023-03-11T05:16:49;2.47;;;1.93;;
6438;SDS011;3252;52.540;13.290;2023-03-11T05:18:52;2.47;;;2.07;;
6438;SDS011;3252;52.540;13.290;2023-03-11T05:20:54;2.27;;;2.00;;
6438;SDS011;3252;52.540;13.290;2023-03-11T05:22:59;2.17;;;1.97;;
6438;SDS011;3252;52.540;13.290;2023-03-11T05:25:07;2.77;;;2.20;;
6438;SDS011;3252;52.540;13.290;2023-03-11T05:27:12;1.90;;;1.80;;
6438;SDS011;3252;52.540;13.290;2023-03-11T05:29:19;2.10;;;1.90;;
6438;SDS011;3252;52.540;13.290;2023-03-11T05:31:22;2.20;;;2.00;;
6438;SDS011;3252;52.540;13.290;2023-03-11T05:33:24;1.60;;;1.50;;
6438;SDS011;3252;52.540;13.290;2023-03-11T05:35:32;2.20;;;2.00;;
6438;SDS011;3252;52.540;13.290;2023-03-11T05:37:34;2.13;;;1.93;;
6438;SDS011;3252;52.540;13.290;2023-03-11T05:39:39;2.20;;;2.00;;
6438;SDS011;3252;52.540;13.290;2023-03-11T05:41:43;2.50;;;2.20;;
6438;SDS011;3252;52.540;13.290;2023-03-11T05:43:47;3.17;;;2.40;;
6438;SDS011;3252;52.540;13.290;2023-03-11T05:45:49;2.43;;;2.23;;
6438;SDS011;3252;52.540;13.290;2023-03-11T05:47:52;2.87;;;2.37;;
6438;SDS011;3252;52.540;13.290;2023-03-11T05:49:54;2.47;;;2.03;;
6438;SDS011;3252;52.540;13.290;2023-03-11T05:51:57;2.60;;;2.23;;
6438;SDS011;3252;52.540;13.290;2023-03-11T05:54:01;2.97;;;2.27;;
6438;SDS011;3252;52.540;13.290;2023-03-11T05:56:10;2.40;;;2.20;;
6438;SDS011;3252;52.540;13.290;2023-03-11T05:58:12;3.13;;;2.77;;
6438;SDS011;3252;52.540;13.290;2023-03-11T06:00:20;3.07;;;2.50;;
6438;SDS011;3252;52.540;13.290;2023-03-11T06:02:27;2.90;;;2.57;;
6438;SDS011;3252;52.540;13.290;2023-03-11T06:04:31;3.20;;;2.50;;
6438;SDS011;3252;52.540;13.290;2023-03-11T06:06:35;2.90;;;2.60;;
6438;SDS011;3252;52.540;13.290;2023-03-11T06:08:39;4.37;;;3.03;;
6438;SDS011;3252;52.540;13.290;2023-03-11T06:10:45;4.03;;;3.27;;
6438;SDS011;3252;52.540;13.290;2023-03-11T06:12:48;4.03;;;3.40;;
6438;SDS011;3252;52.540;13.290;2023-03-11T06:14:56;3.80;;;2.83;;
6438;SDS011;3252;52.540;13.290;2023-03-11T06:17:00;4.00;;;3.23;;
6438;SDS011;3252;52.540;13.290;2023-03-11T06:19:03;4.13;;;3.50;;
6438;SDS011;3252;52.540;13.290;2023-03-11T06:21:10;3.90;;;3.50;;
6438;SDS011;3252;52.540;13.290;2023-03-11T06:23:17;4.80;;;3.53;;
6438;SDS011;3252;52.540;13.290;2023-03-11T06:25:20;4.00;;;3.40;;
6438;SDS011;3252;52.540;13.290;2023-03-11T06:27:27;6.03;;;4.20;;
6438;SDS011;3252;52.540;13.290;2023-03-11T06:29:29;5.10;;;3.80;;
6438;SDS011;3252;52.540;13.290;2023-03-11T06:31:32;4.17;;;3.27;;
6438;SDS011;3252;52.540;13.290;2023-03-11T06:33:42;4.43;;;3.80;;
6438;SDS011;3252;52.540;13.290;2023-03-11T06:35:54;4.60;;;3.90;;
6438;SDS011;3252;52.540;13.290;2023-03-11T06:37:57;4.43;;;3.63;;
6438;SDS011;3252;52.540;13.290;2023-03-11T06:39:59;5.53;;;3.73;;
6438;SDS011;3252;52.540;13.290;2023-03-11T06:42:05;5.50;;;3.50;;
6438;SDS011;3252;52.540;13.290;2023-03-11T06:44:11;6.80;;;4.07;;
6438;SDS011;3252;52.540;13.290;2023-03-11T06:46:17;5.30;;;4.00;;
6438;SDS011;3252;52.540;13.290;2023-03-11T06:48:20;4.83;;;3.60;;
6438;SDS011;3252;52.540;13.290;2023-03-11T06:50:27;7.13;;;3.47;;
6438;SDS011;3252;52.540;13.290;2023-03-11T06:52:33;4.77;;;3.47;;
6438;SDS011;3252;52.540;13.290;2023-03-11T06:54:35;7.33;;;3.90;;
6438;SDS011;3252;52.540;13.290;2023-03-11T06:56:38;5.80;;;3.90;;
6438;SDS011;3252;52.540;13.290;2023-03-11T06:58:42;5.20;;;3.43;;
6438;SDS011;3252;52.540;13.290;2023-03-11T07:00:51;5.70;;;3.07;;
6438;SDS011;3252;52.540;13.290;2023-03-11T07:02:56;4.67;;;3.60;;
6438;SDS011;3252;52.540;13.290;2023-03-11T07:04:59;6.47;;;3.57;;
6438;SDS011;3252;52.540;13.290;2023-03-11T07:07:03;5.97;;;3.33;;
6438;SDS011;3252;52.540;13.290;2023-03-11T07:09:05;6.97;;;3.90;;
6438;SDS011;3252;52.540;13.290;2023-03-11T07:11:11;13.23;;;7.80;;
6438;SDS011;3252;52.540;13.290;2023-03-11T07:13:15;7.17;;;4.10;;
6438;SDS011;3252;52.540;13.290;2023-03-11T07:15:23;4.50;;;2.97;;
6438;SDS011;3252;52.540;13.290;2023-03-11T07:17:26;5.40;;;3.63;;
6438;SDS011;3252;52.540;13.290;2023-03-11T07:19:29;4.93;;;3.50;;
6438;SDS011;3252;52.540;13.290;2023-03-11T07:21:31;6.67;;;3.57;;
6438;SDS011;3252;52.540;13.290;2023-03-11T07:23:35;8.57;;;4.47;;
6438;SDS011;3252;52.540;13.290;2023-03-11T07:25:37;6.80;;;4.50;;
6438;SDS011;3252;52.540;13.290;2023-03-11T07:27:45;5.60;;;3.60;;
6438;SDS011;3252;52.540;13.290;2023-03-11T07:29:49;5.43;;;3.37;;
6438;SDS011;3252;52.540;13.290;2023-03-11T07:31:51;6.47;;;3.53;;
6438;SDS011;3252;52.540;13.290;2023-03-11T07:33:55;5.73;;;3.27;;
6438;SDS011;3252;52.540;13.290;2023-03-11T07:35:59;6.83;;;3.43;;
6438;SDS011;3252;52.540;13.290;2023-03-11T07:38:06;7.77;;;3.87;;
6438;SDS011;3252;52.540;13.290;2023-03-11T07:40:10;6.07;;;3.47;;
6438;SDS011;3252;52.540;13.290;2023-03-11T07:42:13;4.97;;;3.37;;
6438;SDS011;3252;52.540;13.290;2023-03-11T07:44:15;6.77;;;3.50;;
6438;SDS011;3252;52.540;13.290;2023-03-11T07:46:18;6.50;;;3.37;;
6438;SDS011;3252;52.540;13.290;2023-03-11T07:48:22;7.73;;;3.93;;
6438;SDS011;3252;52.540;13.290;2023-03-11T07:50:25;6.17;;;3.80;;
6438;SDS011;3252;52.540;13.290;2023-03-11T07:52:30;10.17;;;4.67;;
6438;SDS011;3252;52.540;13.290;2023-03-11T07:54:34;5.17;;;3.50;;
6438;SDS011;3252;52.540;13.290;2023-03-11T07:56:38;6.17;;;3.43;;
6438;SDS011;3252;52.540;13.290;2023-03-11T07:58:40;5.40;;;3.80;;
6438;SDS011;3252;52.540;13.290;2023-03-11T08:00:43;5.83;;;3.77;;
6438;SDS011;3252;52.540;13.290;2023-03-11T08:02:45;6.57;;;3.70;;
6438;SDS011;3252;52.540;13.290;2023-03-11T08:04:48;6.00;;;3.93;;
6438;SDS011;3252;52.540;13.290;2023-03-11T08:06:50;5.43;;;3.63;;
6438;SDS011;3252;52.540;13.290;2023-03-11T08:09:01;6.97;;;3.47;;
6438;SDS011;3252;52.540;13.290;2023-03-11T08:11:05;5.60;;;3.50;;
6438;SDS011;3252;52.540;13.290;2023-03-11T08:13:13;5.40;;;3.70;;
6438;SDS011;3252;52.540;13.290;2023-03-11T08:15:28;7.20;;;4.03;;
6438;SDS011;3252;52.540;13.290;2023-03-11T08:17:31;4.97;;;3.53;;
6438;SDS011;3252;52.540;13.290;2023-03-11T08:19:33;4.73;;;3.13;;
6438;SDS011;3252;52.540;13.290;2023-03-11T08:21:39;5.40;;;3.30;;
6438;SDS011;3252;52.540;13.290;2023-03-11T08:23:41;5.87;;;3.27;;
6438;SDS011;3252;52.540;13.290;2023-03-11T08:25:44;8.23;;;4.80;;
6438;SDS011;3252;52.540;13.290;2023-03-11T08:27:49;7.43;;;5.30;;
6438;SDS011;3252;52.540;13.290;2023-03-11T08:29:53;5.50;;;3.13;;
6438;SDS011;3252;52.540;13.290;2023-03-11T08:31:55;5.53;;;3.13;;
6438;SDS011;3252;52.540;13.290;2023-03-11T08:33:58;6.63;;;4.37;;
6438;SDS011;3252;52.540;13.290;2023-03-11T08:36:02;9.03;;;5.07;;
6438;SDS011;3252;52.540;13.290;2023-03-11T08:38:04;6.63;;;3.30;;
6438;SDS011;3252;52.540;13.290;2023-03-11T08:40:07;5.67;;;3.63;;
6438;SDS011;3252;52.540;13.290;2023-03-11T08:42:10;6.27;;;2.90;;
6438;SDS011;3252;52.540;13.290;2023-03-11T08:44:12;5.60;;;3.10;;
6438;SDS011;3252;52.540;13.290;2023-03-11T08:46:17;4.37;;;3.60;;
6438;SDS011;3252;52.540;13.290;2023-03-11T08:48:24;7.40;;;4.30;;
6438;SDS011;3252;52.540;13.290;2023-03-11T08:50:27;5.37;;;3.00;;
6438;SDS011;3252;52.540;13.290;2023-03-11T08:52:29;6.33;;;3.00;;
6438;SDS011;3252;52.540;13.290;2023-03-11T08:54:31;3.63;;;2.90;;
6438;SDS011;3252;52.540;13.290;2023-03-11T08:56:33;5.80;;;3.90;;
6438;SDS011;3252;52.540;13.290;2023-03-11T08:58:36;4.00;;;2.90;;
6438;SDS011;3252;52.540;13.290;2023-03-11T09:00:38;6.67;;;3.37;;
6438;SDS011;3252;52.540;13.290;2023-03-11T09:02:41;4.93;;;3.40;;
6438;SDS011;3252;52.540;13.290;2023-03-11T09:04:44;4.27;;;2.90;;
6438;SDS011;3252;52.540;13.290;2023-03-11T09:06:46;6.87;;;3.40;;
6438;SDS011;3252;52.540;13.290;2023-03-11T09:08:49;7.70;;;3.63;;
6438;SDS011;3252;52.540;13.290;2023-03-11T09:10:52;4.50;;;3.37;;
6438;SDS011;3252;52.540;13.290;2023-03-11T09:12:54;7.20;;;3.40;;
6438;SDS011;3252;52.540;13.290;2023-03-11T09:14:56;19.63;;;12.90;;
6438;SDS011;3252;52.540;13.290;2023-03-11T09:16:59;6.33;;;3.90;;
6438;SDS011;3252;52.540;13.290;2023-03-11T09:19:03;8.23;;;5.47;;
6438;SDS011;3252;52.540;13.290;2023-03-11T09:21:07;6.93;;;4.90;;
6438;SDS011;3252;52.540;13.290;2023-03-11T09:23:10;6.40;;;4.67;;
6438;SDS011;3252;52.540;13.290;2023-03-11T09:25:22;6.73;;;5.97;;
6438;SDS011;3252;52.540;13.290;2023-03-11T09:27:25;6.13;;;3.77;;
6438;SDS011;3252;52.540;13.290;2023-03-11T09:29:27;5.27;;;3.63;;
6438;SDS011;3252;52.540;13.290;2023-03-11T09:31:29;5.47;;;3.87;;
6438;SDS011;3252;52.540;13.290;2023-03-11T09:33:35;4.40;;;3.73;;
6438;SDS011;3252;52.540;13.290;2023-03-11T09:35:43;4.97;;;3.97;;
6438;SDS011;3252;52.540;13.290;2023-03-11T09:37:45;6.10;;;3.70;;
6438;SDS011;3252;52.540;13.290;2023-03-11T09:39:48;6.40;;;4.07;;
6438;SDS011;3252;52.540;13.290;2023-03-11T09:41:52;4.17;;;3.50;;
6438;SDS011;3252;52.540;13.290;2023-03-11T09:44:03;6.07;;;5.00;;
6438;SDS011;3252;52.540;13.290;2023-03-11T09:46:22;9.20;;;6.13;;
6438;SDS011;3252;52.540;13.290;2023-03-11T09:48:36;5.90;;;4.83;;
6438;SDS011;3252;52.540;13.290;2023-03-11T09:50:49;4.87;;;3.77;;
6438;SDS011;3252;52.540;13.290;2023-03-11T09:53:01;7.47;;;4.67;;
6438;SDS011;3252;52.540;13.290;2023-03-11T09:55:20;8.47;;;3.93;;
6438;SDS011;3252;52.540;13.290;2023-03-11T09:57:31;6.53;;;4.13;;
6438;SDS011;3252;52.540;13.290;2023-03-11T09:59:35;6.80;;;4.20;;
6438;SDS011;3252;52.540;13.290;2023-03-11T10:01:39;7.97;;;6.37;;
6438;SDS011;3252;52.540;13.290;2023-03-11T10:03:46;7.83;;;4.47;;
6438;SDS011;3252;52.540;13.290;2023-03-11T10:05:51;7.23;;;5.47;;
6438;SDS011;3252;52.540;13.290;2023-03-11T10:08:02;5.53;;;4.17;;
6438;SDS011;3252;52.540;13.290;2023-03-11T10:10:13;5.63;;;4.30;;
6438;SDS011;3252;52.540;13.290;2023-03-11T10:12:24;6.53;;;4.17;;
6438;SDS011;3252;52.540;13.290;2023-03-11T10:14:58;22.50;;;15.97;;
6438;SDS011;3252;52.540;13.290;2023-03-11T10:17:13;4.37;;;3.97;;
6438;SDS011;3252;52.540;13.290;2023-03-11T10:19:24;7.00;;;3.97;;
6438;SDS011;3252;52.540;13.290;2023-03-11T10:21:42;4.70;;;3.67;;
6438;SDS011;3252;52.540;13.290;2023-03-11T10:23:55;4.63;;;3.60;;
6438;SDS011;3252;52.540;13.290;2023-03-11T10:26:08;5.00;;;3.47;;
6438;SDS011;3252;52.540;13.290;2023-03-11T10:28:16;4.57;;;3.60;;
6438;SDS011;3252;52.540;13.290;2023-03-11T10:30:23;5.00;;;3.40;;
6438;SDS011;3252;52.540;13.290;2023-03-11T10:32:31;4.53;;;3.43;;
6438;SDS011;3252;52.540;13.290;2023-03-11T10:34:45;5.50;;;3.80;;
6438;SDS011;3252;52.540;13.290;2023-03-11T10:36:58;5.67;;;3.93;;
6438;SDS011;3252;52.540;13.290;2023-03-11T10:39:05;5.07;;;4.17;;
6438;SDS011;3252;52.540;13.290;2023-03-11T10:41:12;3.87;;;3.50;;
6438;SDS011;3252;52.540;13.290;2023-03-11T10:43:20;5.60;;;3.63;;
6438;SDS011;3252;52.540;13.290;2023-03-11T10:45:29;4.10;;;3.43;;
6438;SDS011;3252;52.540;13.290;2023-03-11T10:47:40;6.07;;;3.93;;
6438;SDS011;3252;52.540;13.290;2023-03-11T10:49:47;5.23;;;3.87;;
6438;SDS011;3252;52.540;13.290;2023-03-11T10:51:50;4.47;;;3.67;;
6438;SDS011;3252;52.540;13.290;2023-03-11T10:53:56;7.03;;;4.40;;
6438;SDS011;3252;52.540;13.290;2023-03-11T10:55:59;5.43;;;4.80;;
6438;SDS011;3252;52.540;13.290;2023-03-11T10:58:06;5.87;;;4.57;;
6438;SDS011;3252;52.540;13.290;2023-03-11T11:00:14;6.13;;;4.40;;
6438;SDS011;3252;52.540;13.290;2023-03-11T11:02:32;6.60;;;4.43;;
6438;SDS011;3252;52.540;13.290;2023-03-11T11:04:39;9.77;;;6.10;;
6438;SDS011;3252;52.540;13.290;2023-03-11T11:06:42;7.33;;;6.00;;
6438;SDS011;3252;52.540;13.290;2023-03-11T11:08:44;8.23;;;6.37;;
6438;SDS011;3252;52.540;13.290;2023-03-11T11:10:51;5.67;;;4.77;;
6438;SDS011;3252;52.540;13.290;2023-03-11T11:12:56;6.37;;;4.97;;
6438;SDS011;3252;52.540;13.290;2023-03-11T11:15:00;7.30;;;5.13;;
6438;SDS011;3252;52.540;13.290;2023-03-11T11:17:02;6.80;;;5.27;;
6438;SDS011;3252;52.540;13.290;2023-03-11T11:19:07;15.60;;;12.10;;
6438;SDS011;3252;52.540;13.290;2023-03-11T11:21:12;11.27;;;10.07;;
6438;SDS011;3252;52.540;13.290;2023-03-11T11:23:23;6.37;;;5.17;;
6438;SDS011;3252;52.540;13.290;2023-03-11T11:25:30;9.13;;;5.30;;
6438;SDS011;3252;52.540;13.290;2023-03-11T11:27:35;7.13;;;5.53;;
6438;SDS011;3252;52.540;13.290;2023-03-11T11:29:38;8.70;;;5.63;;
6438;SDS011;3252;52.540;13.290;2023-03-11T11:31:41;6.80;;;5.43;;
6438;SDS011;3252;52.540;13.290;2023-03-11T11:33:48;6.73;;;5.40;;
6438;SDS011;3252;52.540;13.290;2023-03-11T11:35:52;6.50;;;5.60;;
6438;SDS011;3252;52.540;13.290;2023-03-11T11:37:58;7.27;;;5.47;;
6438;SDS011;3252;52.540;13.290;2023-03-11T11:40:04;7.27;;;5.27;;
6438;SDS011;3252;52.540;13.290;2023-03-11T11:42:19;7.57;;;5.43;;
6438;SDS011;3252;52.540;13.290;2023-03-11T11:44:24;6.20;;;4.77;;
6438;SDS011;3252;52.540;13.290;2023-03-11T11:46:36;5.33;;;4.40;;
6438;SDS011;3252;52.540;13.290;2023-03-11T11:48:43;9.20;;;6.00;;
6438;SDS011;3252;52.540;13.290;2023-03-11T11:50:51;7.93;;;4.73;;
6438;SDS011;3252;52.540;13.290;2023-03-11T11:52:57;5.03;;;4.43;;
6438;SDS011;3252;52.540;13.290;2023-03-11T11:55:16;6.70;;;5.07;;
6438;SDS011;3252;52.540;13.290;2023-03-11T11:57:23;5.67;;;4.17;;
6438;SDS011;3252;52.540;13.290;2023-03-11T11:59:26;5.33;;;4.17;;
6438;SDS011;3252;52.540;13.290;2023-03-11T12:01:34;5.53;;;4.57;;
6438;SDS011;3252;52.540;13.290;2023-03-11T12:03:53;5.30;;;3.67;;
6438;SDS011;3252;52.540;13.290;2023-03-11T12:06:07;4.43;;;3.50;;
6438;SDS011;3252;52.540;13.290;2023-03-11T12:08:20;6.40;;;4.00;;
6438;SDS011;3252;52.540;13.290;2023-03-11T12:10:32;4.73;;;3.97;;
6438;SDS011;3252;52.540;13.290;2023-03-11T12:12:41;5.90;;;4.30;;
6438;SDS011;3252;52.540;13.290;2023-03-11T12:14:52;5.07;;;3.90;;
6438;SDS011;3252;52.540;13.290;2023-03-11T12:16:58;5.53;;;3.80;;
6438;SDS011;3252;52.540;13.290;2023-03-11T12:19:03;5.33;;;4.13;;
6438;SDS011;3252;52.540;13.290;2023-03-11T12:21:19;4.87;;;4.03;;
6438;SDS011;3252;52.540;13.290;2023-03-11T12:23:36;5.73;;;4.27;;
6438;SDS011;3252;52.540;13.290;2023-03-11T12:26:00;6.73;;;4.67;;
6438;SDS011;3252;52.540;13.290;2023-03-11T12:28:15;5.97;;;5.13;;
6438;SDS011;3252;52.540;13.290;2023-03-11T12:30:25;5.70;;;4.53;;
6438;SDS011;3252;52.540;13.290;2023-03-11T12:32:31;6.40;;;4.43;;
6438;SDS011;3252;52.540;13.290;2023-03-11T12:34:38;5.50;;;4.40;;
6438;SDS011;3252;52.540;13.290;2023-03-11T12:36:41;5.73;;;4.30;;
6438;SDS011;3252;52.540;13.290;2023-03-11T12:38:46;6.63;;;4.40;;
6438;SDS011;3252;52.540;13.290;2023-03-11T12:40:56;5.87;;;4.40;;
6438;SDS011;3252;52.540;13.290;2023-03-11T12:43:00;5.50;;;4.27;;
6438;SDS011;3252;52.540;13.290;2023-03-11T12:50:35;6.43;;;4.47;;
6438;SDS011;3252;52.540;13.290;2023-03-11T12:52:52;6.40;;;5.00;;